Weather at Adolfo Suárez Madrid–Barajas Airport

Public forecast

Using degrees Celsius for public forecast. Weather courtesy of forecast.io.

Current aviation weather report (METAR) for Adolfo Suárez Madrid–Barajas Airport

Retrieved 2021/04/11 10:00 UTC (2 minutes ago):

LEMD 111000Z 26001KT 9999 BKN020 14/09 Q1014 R88/29//95 NOSIG

Aviation forecast (TAF) for Adolfo Suárez Madrid–Barajas Airport

Retrieved 2021/04/11 06:35 UTC (3 hours ago):

TAF COR LEMD 110727Z 1106/1212 VRB05KT 9999 SCT040 TX17/1116Z TN03/1206Z TEMPO 1107/1119 3000 RA SHRA BKN014 SCT030TCU PROB40 TEMPO 1112/1119 VRB15G25KT 2000 TSRA SCT030CB BECMG 1116/1118 03010KT